createdAt,value
2018-04-22T00:00:58.681Z,18.98
2018-04-22T00:01:58.659Z,18.97
2018-04-22T00:02:58.762Z,18.97
2018-04-22T00:03:58.667Z,18.98
2018-04-22T00:04:58.646Z,18.98
2018-04-22T00:05:58.628Z,18.99
2018-04-22T00:06:58.777Z,18.97
2018-04-22T00:07:58.669Z,18.97
2018-04-22T00:08:58.742Z,18.98
2018-04-22T00:09:58.589Z,18.98
2018-04-22T00:10:58.696Z,18.95
2018-04-22T00:11:58.768Z,18.98
2018-04-22T00:12:58.602Z,18.99
2018-04-22T00:13:58.686Z,18.97
2018-04-22T00:14:58.625Z,18.98
2018-04-22T00:15:58.883Z,18.98
2018-04-22T00:16:58.668Z,18.95
2018-04-22T00:17:58.636Z,18.98
2018-04-22T00:18:58.852Z,18.94
2018-04-22T00:19:58.584Z,18.98
2018-04-22T00:20:58.696Z,18.96
2018-04-22T00:21:58.800Z,18.97
2018-04-22T00:22:58.865Z,18.98
2018-04-22T00:23:58.614Z,18.97
2018-04-22T00:24:58.765Z,18.96
2018-04-22T00:25:58.733Z,18.97
2018-04-22T00:26:58.859Z,18.96
2018-04-22T00:27:58.635Z,18.96
2018-04-22T00:28:58.586Z,18.98
2018-04-22T00:29:58.756Z,18.98
2018-04-22T00:30:58.824Z,18.96
2018-04-22T00:31:58.767Z,18.97
2018-04-22T00:32:58.663Z,18.96
2018-04-22T00:33:58.691Z,18.94
2018-04-22T00:34:58.682Z,18.96
2018-04-22T00:35:58.791Z,18.98
2018-04-22T00:36:58.882Z,18.95
2018-04-22T00:37:58.575Z,18.95
2018-04-22T00:38:58.594Z,18.97
2018-04-22T00:39:58.754Z,18.94
2018-04-22T00:40:58.756Z,18.95
2018-04-22T00:41:58.775Z,18.96
2018-04-22T00:42:58.760Z,18.96
2018-04-22T00:43:58.602Z,18.95
2018-04-22T00:44:58.649Z,18.97
2018-04-22T00:45:58.680Z,18.95
2018-04-22T00:46:58.587Z,18.96
2018-04-22T00:47:58.698Z,18.95
2018-04-22T00:48:58.845Z,18.94
2018-04-22T00:49:58.797Z,18.94
2018-04-22T00:50:58.717Z,18.97
2018-04-22T00:51:58.755Z,18.92
2018-04-22T00:52:58.737Z,18.94
2018-04-22T00:53:58.576Z,18.94
2018-04-22T00:54:58.606Z,18.96
2018-04-22T00:55:58.677Z,18.94
2018-04-22T00:56:58.859Z,18.94
2018-04-22T00:57:58.837Z,18.94
2018-04-22T00:58:58.766Z,18.94
2018-04-22T00:59:58.569Z,18.94
2018-04-22T01:00:58.708Z,18.93
2018-04-22T01:01:58.730Z,18.94
2018-04-22T01:02:58.688Z,18.94
2018-04-22T01:03:58.809Z,18.94
2018-04-22T01:04:58.693Z,18.92
2018-04-22T01:05:58.516Z,18.94
2018-04-22T01:06:58.757Z,18.93
2018-04-22T01:07:58.605Z,18.93
2018-04-22T01:08:58.679Z,18.93
2018-04-22T01:09:58.753Z,18.94
2018-04-22T01:10:58.764Z,18.92
2018-04-22T01:11:58.768Z,18.93
2018-04-22T01:12:58.756Z,18.93
2018-04-22T01:13:58.678Z,18.94
2018-04-22T01:14:58.686Z,18.94
2018-04-22T01:15:58.784Z,18.93
2018-04-22T01:16:58.875Z,18.94
2018-04-22T01:17:58.753Z,18.92
2018-04-22T01:18:58.750Z,18.91
2018-04-22T01:19:58.794Z,18.91
2018-04-22T01:20:58.842Z,18.94
2018-04-22T01:21:58.812Z,18.91
2018-04-22T01:22:58.764Z,18.93
2018-04-22T01:23:58.714Z,18.94
2018-04-22T01:24:58.546Z,18.92
2018-04-22T01:25:58.856Z,18.92
2018-04-22T01:26:58.810Z,18.91
2018-04-22T01:27:58.620Z,18.91
2018-04-22T01:28:58.707Z,18.89
2018-04-22T01:29:58.958Z,18.92
2018-04-22T01:30:58.565Z,18.92
2018-04-22T01:31:58.703Z,18.92
2018-04-22T01:32:59.053Z,18.92
2018-04-22T01:33:58.841Z,18.91
2018-04-22T01:34:58.860Z,18.91
2018-04-22T01:35:58.648Z,18.92
2018-04-22T01:36:58.836Z,18.92
2018-04-22T01:37:58.680Z,18.91
2018-04-22T01:38:58.747Z,18.94
2018-04-22T01:39:58.653Z,18.91
2018-04-22T01:40:58.754Z,18.91
2018-04-22T01:41:58.920Z,18.89
2018-04-22T01:42:58.925Z,18.88
2018-04-22T01:43:58.779Z,18.91
2018-04-22T01:44:58.675Z,18.91
2018-04-22T01:45:58.843Z,18.89
2018-04-22T01:46:58.811Z,18.93
2018-04-22T01:47:58.668Z,18.91
2018-04-22T01:48:58.642Z,18.93
2018-04-22T01:49:58.535Z,18.89
2018-04-22T01:50:58.756Z,18.91
2018-04-22T01:51:58.785Z,18.91
2018-04-22T01:52:58.740Z,18.92
2018-04-22T01:53:58.618Z,18.89
2018-04-22T01:54:58.653Z,18.88
2018-04-22T01:55:58.976Z,18.89
2018-04-22T01:56:58.792Z,18.88
2018-04-22T01:57:58.578Z,18.88
2018-04-22T01:58:58.644Z,18.89
2018-04-22T01:59:58.774Z,18.91
2018-04-22T02:00:58.851Z,18.88
2018-04-22T02:01:58.766Z,18.88
2018-04-22T02:02:58.773Z,18.89
2018-04-22T02:03:58.729Z,18.89
2018-04-22T02:04:58.757Z,18.89
2018-04-22T02:05:58.541Z,18.88
2018-04-22T02:06:58.756Z,18.89
2018-04-22T02:07:58.743Z,18.89
2018-04-22T02:08:58.530Z,18.91
2018-04-22T02:09:58.754Z,18.87
2018-04-22T02:10:58.651Z,18.88
2018-04-22T02:11:59.000Z,18.92
2018-04-22T02:12:58.571Z,18.88
2018-04-22T02:13:58.660Z,18.88
2018-04-22T02:14:58.573Z,18.88
2018-04-22T02:15:58.716Z,18.88
2018-04-22T02:16:58.865Z,18.88
2018-04-22T02:17:59.201Z,18.91
2018-04-22T02:18:58.707Z,18.88
2018-04-22T02:19:58.560Z,18.88
2018-04-22T02:20:58.716Z,18.87
2018-04-22T02:21:58.888Z,18.87
2018-04-22T02:22:58.811Z,18.88
2018-04-22T02:23:58.662Z,18.88
2018-04-22T02:24:58.722Z,18.88
2018-04-22T02:25:58.688Z,18.87
2018-04-22T02:26:58.608Z,18.87
2018-04-22T02:27:58.583Z,18.87
2018-04-22T02:28:58.762Z,18.87
2018-04-22T02:29:58.751Z,18.88
2018-04-22T02:30:58.813Z,18.88
2018-04-22T02:31:58.737Z,18.88
2018-04-22T02:32:58.598Z,18.88
2018-04-22T02:33:58.772Z,18.86
2018-04-22T02:34:58.751Z,18.87
2018-04-22T02:35:58.796Z,18.88
2018-04-22T02:36:58.575Z,18.88
2018-04-22T02:37:58.768Z,18.88
2018-04-22T02:38:58.807Z,18.88
2018-04-22T02:39:58.820Z,18.86
2018-04-22T02:40:58.601Z,18.87
2018-04-22T02:41:58.731Z,18.87
2018-04-22T02:42:58.860Z,18.85
2018-04-22T02:43:58.589Z,18.86
2018-04-22T02:44:58.646Z,18.87
2018-04-22T02:45:58.754Z,18.85
2018-04-22T02:46:58.428Z,18.86
2018-04-22T02:47:58.581Z,18.86
2018-04-22T02:48:58.674Z,18.87
2018-04-22T02:49:58.837Z,18.86
2018-04-22T02:50:58.683Z,18.87
2018-04-22T02:51:58.656Z,18.86
2018-04-22T02:52:58.575Z,18.85
2018-04-22T02:53:58.586Z,18.86
2018-04-22T02:54:58.781Z,18.87
2018-04-22T02:55:58.759Z,18.86
2018-04-22T02:56:58.623Z,18.86
2018-04-22T02:57:58.757Z,18.86
2018-04-22T02:58:58.742Z,18.85
2018-04-22T02:59:58.643Z,18.84
2018-04-22T03:00:58.760Z,18.86
2018-04-22T03:01:58.599Z,18.85
2018-04-22T03:02:58.768Z,18.85
2018-04-22T03:03:58.518Z,18.84
2018-04-22T03:04:58.625Z,18.85
2018-04-22T03:05:58.522Z,18.85
2018-04-22T03:06:58.661Z,18.86
2018-04-22T03:07:59.080Z,18.85
2018-04-22T03:08:58.666Z,18.85
2018-04-22T03:09:58.725Z,18.82
2018-04-22T03:10:58.563Z,18.84
2018-04-22T03:11:58.665Z,18.82
2018-04-22T03:12:58.729Z,18.83
2018-04-22T03:13:58.584Z,18.85
2018-04-22T03:14:58.504Z,18.84
2018-04-22T03:15:58.690Z,18.85
2018-04-22T03:16:58.708Z,18.86
2018-04-22T03:17:58.764Z,18.86
2018-04-22T03:18:58.519Z,18.85
2018-04-22T03:19:58.523Z,18.84
2018-04-22T03:20:58.583Z,18.84
2018-04-22T03:21:58.581Z,18.82
2018-04-22T03:22:58.605Z,18.84
2018-04-22T03:23:58.746Z,18.85
2018-04-22T03:24:58.550Z,18.85
2018-04-22T03:25:58.694Z,18.84
2018-04-22T03:26:58.775Z,18.83
2018-04-22T03:27:58.717Z,18.84
2018-04-22T03:28:58.672Z,18.85
2018-04-22T03:29:58.521Z,18.84
2018-04-22T03:30:58.512Z,18.84
2018-04-22T03:31:58.720Z,18.84
2018-04-22T03:32:58.745Z,18.84
2018-04-22T03:33:58.637Z,18.84
2018-04-22T03:34:58.703Z,18.84
2018-04-22T03:35:58.768Z,18.84
2018-04-22T03:36:58.533Z,18.84
2018-04-22T03:37:58.785Z,18.83
2018-04-22T03:38:58.716Z,18.83
2018-04-22T03:39:58.602Z,18.82
2018-04-22T03:40:58.674Z,18.83
2018-04-22T03:41:58.790Z,18.84
2018-04-22T03:42:58.689Z,18.82
2018-04-22T03:43:58.524Z,18.83
2018-04-22T03:44:58.660Z,18.84
2018-04-22T03:45:58.707Z,18.81
2018-04-22T03:46:58.782Z,18.83
2018-04-22T03:47:58.788Z,18.84
2018-04-22T03:48:58.533Z,18.83
2018-04-22T03:49:58.489Z,18.82
2018-04-22T03:50:58.752Z,18.82
2018-04-22T03:51:58.737Z,18.82
2018-04-22T03:52:58.770Z,18.83
2018-04-22T03:53:58.665Z,18.83
2018-04-22T03:54:58.727Z,18.82
2018-04-22T03:55:58.605Z,18.84
2018-04-22T03:56:58.652Z,18.82
2018-04-22T03:57:58.686Z,18.82
2018-04-22T03:58:58.594Z,18.82
2018-04-22T03:59:58.527Z,18.83
2018-04-22T04:00:58.556Z,18.82
2018-04-22T04:01:58.652Z,18.83
2018-04-22T04:02:58.556Z,18.83
2018-04-22T04:03:58.595Z,18.82
2018-04-22T04:04:58.613Z,18.81
2018-04-22T04:05:58.699Z,18.83
2018-04-22T04:06:58.496Z,18.82
2018-04-22T04:07:58.744Z,18.81
2018-04-22T04:08:58.679Z,18.82
2018-04-22T04:09:58.853Z,18.82
2018-04-22T04:10:58.600Z,18.82
2018-04-22T04:11:58.623Z,18.81
2018-04-22T04:12:58.662Z,18.82
2018-04-22T04:13:58.532Z,18.81
2018-04-22T04:14:58.337Z,18.83
2018-04-22T04:15:58.810Z,18.83
2018-04-22T04:16:58.700Z,18.81
2018-04-22T04:17:58.692Z,18.82
2018-04-22T04:18:58.605Z,18.82
2018-04-22T04:19:58.501Z,18.82
2018-04-22T04:20:58.625Z,18.81
2018-04-22T04:21:58.709Z,18.82
2018-04-22T04:22:58.659Z,18.82
2018-04-22T04:23:58.815Z,18.83
2018-04-22T04:24:58.601Z,18.81
2018-04-22T04:25:58.596Z,18.81
2018-04-22T04:26:58.633Z,18.82
2018-04-22T04:27:58.473Z,18.81
2018-04-22T04:28:58.618Z,18.8
2018-04-22T04:29:58.630Z,18.82
2018-04-22T04:30:58.790Z,18.82
2018-04-22T04:31:58.685Z,18.81
2018-04-22T04:32:58.669Z,18.82
2018-04-22T04:33:58.570Z,18.82
2018-04-22T04:34:58.588Z,18.8
2018-04-22T04:35:58.948Z,18.82
2018-04-22T04:36:58.569Z,18.81
2018-04-22T04:37:58.727Z,18.82
2018-04-22T04:38:58.491Z,18.82
2018-04-22T04:39:58.771Z,18.81
2018-04-22T04:40:58.737Z,18.82
2018-04-22T04:41:58.753Z,18.82
2018-04-22T04:42:58.653Z,18.79
2018-04-22T04:43:58.595Z,18.82
2018-04-22T04:44:58.512Z,18.82
2018-04-22T04:45:58.541Z,18.82
2018-04-22T04:46:58.532Z,18.82
2018-04-22T04:47:58.762Z,18.81
2018-04-22T04:48:58.755Z,18.82
2018-04-22T04:49:58.737Z,18.82
2018-04-22T04:50:58.573Z,18.83
2018-04-22T04:51:58.653Z,18.81
2018-04-22T04:52:58.799Z,18.81
2018-04-22T04:53:58.800Z,18.82
2018-04-22T04:54:58.845Z,18.81
2018-04-22T04:55:58.522Z,18.82
2018-04-22T04:56:58.626Z,18.82
2018-04-22T04:57:58.647Z,18.81
2018-04-22T04:58:58.627Z,18.81
2018-04-22T04:59:58.681Z,18.82
2018-04-22T05:00:58.686Z,18.82
2018-04-22T05:01:58.575Z,18.82
2018-04-22T05:02:58.662Z,18.81
2018-04-22T05:03:58.563Z,18.8
2018-04-22T05:04:58.817Z,18.82
2018-04-22T05:05:58.512Z,18.83
2018-04-22T05:06:58.697Z,18.81
2018-04-22T05:07:58.613Z,18.81
2018-04-22T05:08:58.803Z,18.81
2018-04-22T05:09:58.505Z,18.8
2018-04-22T05:10:58.694Z,18.82
2018-04-22T05:11:58.677Z,18.82
2018-04-22T05:12:58.666Z,18.82
2018-04-22T05:13:58.527Z,18.81
2018-04-22T05:14:58.660Z,18.82
2018-04-22T05:15:58.823Z,18.81
2018-04-22T05:16:58.712Z,18.81
2018-04-22T05:17:58.496Z,18.8
2018-04-22T05:18:58.655Z,18.79
2018-04-22T05:19:58.679Z,18.82
2018-04-22T05:20:58.674Z,18.82
2018-04-22T05:21:58.560Z,18.82
2018-04-22T05:22:58.499Z,18.8
2018-04-22T05:23:58.597Z,18.82
2018-04-22T05:24:58.660Z,18.82
2018-04-22T05:25:58.550Z,18.81
2018-04-22T05:26:58.591Z,18.82
2018-04-22T05:27:58.503Z,18.82
2018-04-22T05:28:58.667Z,18.82
2018-04-22T05:29:58.534Z,18.81
2018-04-22T05:30:58.655Z,18.82
2018-04-22T05:31:58.598Z,18.82
2018-04-22T05:32:58.599Z,18.83
2018-04-22T05:33:58.485Z,18.8
2018-04-22T05:34:58.522Z,18.82
2018-04-22T05:35:58.495Z,18.8
2018-04-22T05:36:58.609Z,18.8
2018-04-22T05:37:58.571Z,18.83
2018-04-22T05:38:58.693Z,18.82
2018-04-22T05:39:58.561Z,18.79
2018-04-22T05:40:58.627Z,18.8
2018-04-22T05:41:58.592Z,18.81
2018-04-22T05:42:58.473Z,18.81
2018-04-22T05:43:58.717Z,18.8
2018-04-22T05:44:58.606Z,18.82
2018-04-22T05:45:58.735Z,18.82
2018-04-22T05:46:58.541Z,18.8
2018-04-22T05:47:58.587Z,18.82
2018-04-22T05:48:58.573Z,18.8
2018-04-22T05:49:58.501Z,18.8
2018-04-22T05:50:58.655Z,18.82
2018-04-22T05:51:58.744Z,18.82
2018-04-22T05:52:58.520Z,18.81
2018-04-22T05:53:58.672Z,18.81
2018-04-22T05:54:58.874Z,18.82
2018-04-22T05:55:58.670Z,18.8
2018-04-22T05:56:58.576Z,18.81
2018-04-22T05:57:58.570Z,18.82
2018-04-22T05:58:58.560Z,18.81
2018-04-22T05:59:58.615Z,18.81
2018-04-22T06:00:58.623Z,18.81
2018-04-22T06:01:58.324Z,18.82
2018-04-22T06:02:58.638Z,18.8
2018-04-22T06:03:58.697Z,18.8
2018-04-22T06:04:58.676Z,18.81
2018-04-22T06:05:58.510Z,18.82
2018-04-22T06:06:58.579Z,18.81
2018-04-22T06:07:58.820Z,18.8
2018-04-22T06:08:58.531Z,18.82
2018-04-22T06:09:58.684Z,18.82
2018-04-22T06:10:58.600Z,18.81
2018-04-22T06:11:58.543Z,18.82
2018-04-22T06:12:58.518Z,18.83
2018-04-22T06:13:58.643Z,18.82
2018-04-22T06:14:58.789Z,18.81
2018-04-22T06:15:58.752Z,18.81
2018-04-22T06:16:58.665Z,18.79
2018-04-22T06:17:58.750Z,18.81
2018-04-22T06:18:58.734Z,18.8
2018-04-22T06:19:58.498Z,18.82
2018-04-22T06:20:58.801Z,18.81
2018-04-22T06:21:58.783Z,18.8
2018-04-22T06:22:58.703Z,18.81
2018-04-22T06:23:58.697Z,18.81
2018-04-22T06:24:58.483Z,18.79
2018-04-22T06:25:58.611Z,18.8
2018-04-22T06:26:58.379Z,18.81
2018-04-22T06:27:58.558Z,18.82
2018-04-22T06:28:58.564Z,18.81
2018-04-22T06:29:58.585Z,18.82
2018-04-22T06:30:58.440Z,18.79
2018-04-22T06:31:58.732Z,18.79
2018-04-22T06:32:58.689Z,18.79
2018-04-22T06:33:58.636Z,18.8
2018-04-22T06:34:58.576Z,18.81
2018-04-22T06:35:58.500Z,18.81
2018-04-22T06:36:58.450Z,18.81
2018-04-22T06:37:58.646Z,18.79
2018-04-22T06:38:58.602Z,18.81
2018-04-22T06:39:58.451Z,18.82
2018-04-22T06:40:58.581Z,18.78
2018-04-22T06:41:58.647Z,18.8
2018-04-22T06:42:58.578Z,18.8
2018-04-22T06:43:58.415Z,18.8
2018-04-22T06:44:58.640Z,18.81
2018-04-22T06:45:58.653Z,18.79
2018-04-22T06:46:58.733Z,18.8
2018-04-22T06:47:58.619Z,18.81
2018-04-22T06:48:58.713Z,18.81
2018-04-22T06:49:58.446Z,18.79
2018-04-22T06:50:58.620Z,18.82
2018-04-22T06:51:58.451Z,18.79
2018-04-22T06:52:58.587Z,18.8
2018-04-22T06:53:58.520Z,18.8
2018-04-22T06:54:58.585Z,18.81
2018-04-22T06:55:58.684Z,18.8
2018-04-22T06:56:58.647Z,18.82
2018-04-22T06:57:58.730Z,18.81
2018-04-22T06:58:58.628Z,18.8
2018-04-22T06:59:58.515Z,18.82
2018-04-22T07:00:58.602Z,18.81
2018-04-22T07:01:58.597Z,18.82
2018-04-22T07:02:58.538Z,18.83
2018-04-22T07:03:58.654Z,18.84
2018-04-22T07:04:58.766Z,18.84
2018-04-22T07:05:58.598Z,18.85
2018-04-22T07:06:58.715Z,18.86
2018-04-22T07:07:58.449Z,18.88
2018-04-22T07:08:58.593Z,18.88
2018-04-22T07:09:58.704Z,18.89
2018-04-22T07:10:58.444Z,18.89
2018-04-22T07:11:58.572Z,18.89
2018-04-22T07:12:58.518Z,18.91
2018-04-22T07:13:58.583Z,18.93
2018-04-22T07:14:58.681Z,18.94
2018-04-22T07:15:58.487Z,18.95
2018-04-22T07:16:58.453Z,18.96
2018-04-22T07:17:58.608Z,18.93
2018-04-22T07:18:58.681Z,18.93
2018-04-22T07:19:58.458Z,18.94
2018-04-22T07:20:58.597Z,18.93
2018-04-22T07:21:58.534Z,18.92
2018-04-22T07:22:58.589Z,18.93
2018-04-22T07:23:59.010Z,18.92
2018-04-22T07:24:58.526Z,18.92
2018-04-22T07:25:58.521Z,18.93
2018-04-22T07:26:58.517Z,18.94
2018-04-22T07:27:58.537Z,18.93
2018-04-22T07:28:58.531Z,18.93
2018-04-22T07:29:58.613Z,18.92
2018-04-22T07:30:58.430Z,18.91
2018-04-22T07:31:58.611Z,18.91
2018-04-22T07:32:58.640Z,18.93
2018-04-22T07:33:58.650Z,18.88
2018-04-22T07:34:58.537Z,18.91
2018-04-22T07:35:58.572Z,18.91
2018-04-22T07:36:58.471Z,18.88
2018-04-22T07:37:58.722Z,18.87
2018-04-22T07:38:58.604Z,18.92
2018-04-22T07:39:58.491Z,18.88
2018-04-22T07:40:58.550Z,18.89
2018-04-22T07:41:58.412Z,18.92
2018-04-22T07:42:58.504Z,18.86
2018-04-22T07:43:58.604Z,18.89
2018-04-22T07:44:58.659Z,18.88
2018-04-22T07:45:58.467Z,18.86
2018-04-22T07:46:58.512Z,18.87
2018-04-22T07:47:58.696Z,18.88
2018-04-22T07:48:58.541Z,18.87
2018-04-22T07:49:58.713Z,18.88
2018-04-22T07:50:58.491Z,18.89
2018-04-22T07:51:58.565Z,18.88
2018-04-22T07:52:58.651Z,18.87
2018-04-22T07:53:58.547Z,18.89
2018-04-22T07:54:58.626Z,18.87
2018-04-22T07:55:58.440Z,18.88
2018-04-22T07:56:58.441Z,18.87
2018-04-22T07:57:58.555Z,18.88
2018-04-22T07:58:58.677Z,18.87
2018-04-22T07:59:58.477Z,18.88
2018-04-22T08:00:58.607Z,18.88
2018-04-22T08:01:58.690Z,18.87
2018-04-22T08:02:58.467Z,18.87
2018-04-22T08:03:58.458Z,18.87
2018-04-22T08:04:58.575Z,18.87
2018-04-22T08:05:58.575Z,18.86
2018-04-22T08:06:58.402Z,18.86
2018-04-22T08:07:58.642Z,18.87
2018-04-22T08:08:58.610Z,18.88
2018-04-22T08:09:58.681Z,18.85
2018-04-22T08:10:58.498Z,18.87
2018-04-22T08:11:58.565Z,18.88
2018-04-22T08:12:58.573Z,18.88
2018-04-22T08:13:58.730Z,18.86
2018-04-22T08:14:58.616Z,18.88
2018-04-22T08:15:58.613Z,18.86
2018-04-22T08:16:58.707Z,18.87
2018-04-22T08:17:58.765Z,18.86
2018-04-22T08:18:58.603Z,18.86
2018-04-22T08:19:58.696Z,18.87
2018-04-22T08:20:58.723Z,18.87
2018-04-22T08:21:58.543Z,18.86
2018-04-22T08:22:58.515Z,18.85
2018-04-22T08:23:58.639Z,18.87
2018-04-22T08:24:58.641Z,18.86
2018-04-22T08:25:58.494Z,18.86
2018-04-22T08:26:58.602Z,18.87
2018-04-22T08:27:58.574Z,18.87
2018-04-22T08:28:58.433Z,18.87
2018-04-22T08:29:58.570Z,18.86
2018-04-22T08:30:58.508Z,18.84
2018-04-22T08:31:58.385Z,18.84
2018-04-22T08:32:58.666Z,18.86
2018-04-22T08:33:58.845Z,18.86
2018-04-22T08:34:58.593Z,18.85
2018-04-22T08:35:58.548Z,18.87
2018-04-22T08:36:58.569Z,18.83
2018-04-22T08:37:58.489Z,18.85
2018-04-22T08:38:58.542Z,18.87
2018-04-22T08:39:58.636Z,18.85
2018-04-22T08:40:58.448Z,18.86
2018-04-22T08:41:58.563Z,18.86
2018-04-22T08:42:58.470Z,18.86
2018-04-22T08:43:58.875Z,18.86
2018-04-22T08:44:58.678Z,18.87
2018-04-22T08:45:58.645Z,18.86
2018-04-22T08:46:58.571Z,18.85
2018-04-22T08:47:58.533Z,18.86
2018-04-22T08:48:58.926Z,18.86
2018-04-22T08:49:58.506Z,18.84
2018-04-22T08:50:58.607Z,18.85
2018-04-22T08:51:58.684Z,18.84
2018-04-22T08:52:58.484Z,18.86
2018-04-22T08:53:58.709Z,18.86
2018-04-22T08:54:58.435Z,18.85
2018-04-22T08:55:58.573Z,18.84
2018-04-22T08:56:58.395Z,18.84
2018-04-22T08:57:58.456Z,18.84
2018-04-22T08:58:58.978Z,18.84
2018-04-22T08:59:58.600Z,18.86
2018-04-22T09:00:58.560Z,18.85
2018-04-22T09:01:58.775Z,18.86
2018-04-22T09:02:58.896Z,18.84
2018-04-22T09:03:58.535Z,18.85
2018-04-22T09:04:58.897Z,18.84
2018-04-22T09:05:58.710Z,18.87
2018-04-22T09:06:58.700Z,18.85
2018-04-22T09:07:58.627Z,18.84
2018-04-22T09:08:58.539Z,18.86
2018-04-22T09:09:58.755Z,18.84
2018-04-22T09:10:58.518Z,18.86
2018-04-22T09:11:59.054Z,18.85
2018-04-22T09:12:59.060Z,18.84
2018-04-22T09:13:58.415Z,18.85
2018-04-22T09:14:58.433Z,18.86
2018-04-22T09:15:58.742Z,18.84
2018-04-22T09:16:58.542Z,18.86
2018-04-22T09:17:58.628Z,18.87
2018-04-22T09:18:58.473Z,18.83
2018-04-22T09:19:58.814Z,18.83
2018-04-22T09:20:58.612Z,18.85
2018-04-22T09:21:58.675Z,18.84
2018-04-22T09:22:58.537Z,18.85
2018-04-22T09:23:58.636Z,18.85
2018-04-22T09:24:58.496Z,18.85
2018-04-22T09:25:58.488Z,18.84
2018-04-22T09:26:58.548Z,18.85
2018-04-22T09:27:58.818Z,18.84
2018-04-22T09:28:58.651Z,18.84
2018-04-22T09:29:58.503Z,18.86
2018-04-22T09:30:58.463Z,18.85
2018-04-22T09:31:58.567Z,18.87
2018-04-22T09:32:58.421Z,18.87
2018-04-22T09:33:58.547Z,18.88
2018-04-22T09:34:58.510Z,18.91
2018-04-22T09:35:58.512Z,18.93
2018-04-22T09:36:58.463Z,18.94
2018-04-22T09:37:58.914Z,18.95
2018-04-22T09:38:58.428Z,18.97
2018-04-22T09:39:58.409Z,18.98
2018-04-22T09:40:58.597Z,18.97
2018-04-22T09:41:58.837Z,18.99
2018-04-22T09:42:58.475Z,18.98
2018-04-22T09:43:58.694Z,19.01
2018-04-22T09:44:58.576Z,19.01
2018-04-22T09:45:59.044Z,19.03
2018-04-22T09:46:58.412Z,19.05
2018-04-22T09:47:58.401Z,19.06
2018-04-22T09:48:58.619Z,19.07
2018-04-22T09:49:58.908Z,19.09
2018-04-22T09:50:58.558Z,19.08
2018-04-22T09:51:58.515Z,19.1
2018-04-22T09:52:58.500Z,19.12
2018-04-22T09:53:58.628Z,19.11
2018-04-22T09:54:58.529Z,19.15
2018-04-22T09:55:58.641Z,19.12
2018-04-22T09:56:58.653Z,19.14
2018-04-22T09:57:58.644Z,19.15
2018-04-22T09:58:58.653Z,19.15
2018-04-22T09:59:58.441Z,19.16
2018-04-22T10:00:58.441Z,19.21
2018-04-22T10:01:58.434Z,19.2
2018-04-22T10:02:58.658Z,19.21
2018-04-22T10:03:58.618Z,19.22
2018-04-22T10:04:58.774Z,19.2
2018-04-22T10:05:58.596Z,19.21
2018-04-22T10:06:58.591Z,19.24
2018-04-22T10:07:58.655Z,19.25
2018-04-22T10:08:58.528Z,19.24
2018-04-22T10:09:58.564Z,19.26
2018-04-22T10:10:58.934Z,19.26
2018-04-22T10:11:58.447Z,19.28
2018-04-22T10:12:58.628Z,19.26
2018-04-22T10:13:58.531Z,19.27
2018-04-22T10:14:58.428Z,19.29
2018-04-22T10:15:58.635Z,19.28
2018-04-22T10:16:58.734Z,19.29
2018-04-22T10:17:58.537Z,19.28
2018-04-22T10:18:58.806Z,19.29
2018-04-22T10:19:58.730Z,19.29
2018-04-22T10:20:58.510Z,19.3
2018-04-22T10:21:58.788Z,19.3
2018-04-22T10:22:58.606Z,19.31
2018-04-22T10:23:58.752Z,19.32
2018-04-22T10:24:58.743Z,19.32
2018-04-22T10:25:58.425Z,19.33
2018-04-22T10:26:58.518Z,19.32
2018-04-22T10:27:58.513Z,19.32
2018-04-22T10:28:58.441Z,19.33
2018-04-22T10:29:58.414Z,19.33
2018-04-22T10:30:58.397Z,19.32
2018-04-22T10:31:58.480Z,19.36
2018-04-22T10:32:58.462Z,19.33
2018-04-22T10:33:58.596Z,19.37
2018-04-22T10:34:58.636Z,19.36
2018-04-22T10:35:59.452Z,19.36
2018-04-22T10:36:58.419Z,19.37
2018-04-22T10:37:58.566Z,19.38
2018-04-22T10:38:58.632Z,19.37
2018-04-22T10:39:58.912Z,19.37
2018-04-22T10:40:58.599Z,19.37
2018-04-22T10:41:58.789Z,19.38
2018-04-22T10:42:58.542Z,19.37
2018-04-22T10:43:58.485Z,19.36
2018-04-22T10:44:58.510Z,19.39
2018-04-22T10:45:58.456Z,19.39
2018-04-22T10:46:58.552Z,19.38
2018-04-22T10:47:58.616Z,19.39
2018-04-22T10:48:58.465Z,19.39
2018-04-22T10:49:58.497Z,19.39
2018-04-22T10:50:58.476Z,19.4
2018-04-22T10:51:58.656Z,19.39
2018-04-22T10:52:58.556Z,19.39
2018-04-22T10:53:58.637Z,19.38
2018-04-22T10:54:58.479Z,19.4
2018-04-22T10:55:58.497Z,19.39
2018-04-22T10:56:58.548Z,19.39
2018-04-22T10:57:58.847Z,19.4
2018-04-22T10:58:58.513Z,19.4
2018-04-22T10:59:58.583Z,19.4
2018-04-22T11:00:58.501Z,19.41
2018-04-22T11:01:58.759Z,19.42
2018-04-22T11:02:58.427Z,19.41
2018-04-22T11:03:58.474Z,19.44
2018-04-22T11:04:58.477Z,19.41
2018-04-22T11:05:58.432Z,19.44
2018-04-22T11:06:58.512Z,19.42
2018-04-22T11:07:58.480Z,19.43
2018-04-22T11:08:58.459Z,19.42
2018-04-22T11:09:58.953Z,19.42
2018-04-22T11:10:58.395Z,19.42
2018-04-22T11:11:58.599Z,19.43
2018-04-22T11:12:59.185Z,19.42
2018-04-22T11:13:58.433Z,19.42
2018-04-22T11:14:58.577Z,19.41
2018-04-22T11:15:58.652Z,19.43
2018-04-22T11:16:58.620Z,19.44
2018-04-22T11:17:58.637Z,19.44
2018-04-22T11:18:58.445Z,19.44
2018-04-22T11:19:58.564Z,19.41
2018-04-22T11:20:58.535Z,19.43
2018-04-22T11:21:58.714Z,19.44
2018-04-22T11:22:58.597Z,19.43
2018-04-22T11:23:58.602Z,19.43
2018-04-22T11:24:58.618Z,19.43
2018-04-22T11:25:58.423Z,19.44
2018-04-22T11:26:58.493Z,19.44
2018-04-22T11:27:58.459Z,19.45
2018-04-22T11:28:58.528Z,19.44
2018-04-22T11:29:58.480Z,19.44
2018-04-22T11:30:58.673Z,19.46
2018-04-22T11:31:58.744Z,19.46
2018-04-22T11:32:58.598Z,19.44
2018-04-22T11:33:58.631Z,19.45
2018-04-22T11:34:58.454Z,19.46
2018-04-22T11:35:58.535Z,19.46
2018-04-22T11:36:58.544Z,19.48
2018-04-22T11:37:58.651Z,19.47
2018-04-22T11:38:58.730Z,19.46
2018-04-22T11:39:58.566Z,19.47
2018-04-22T11:40:58.747Z,19.46
2018-04-22T11:41:58.861Z,19.45
2018-04-22T11:42:58.509Z,19.47
2018-04-22T11:43:58.567Z,19.45
2018-04-22T11:44:58.396Z,19.47
2018-04-22T11:45:58.680Z,19.47
2018-04-22T11:46:58.459Z,19.45
2018-04-22T11:47:58.611Z,19.43
2018-04-22T11:48:58.633Z,19.46
2018-04-22T11:49:58.621Z,19.44
2018-04-22T11:50:58.361Z,19.43
2018-04-22T11:51:58.476Z,19.45
2018-04-22T11:52:58.608Z,19.44
2018-04-22T11:53:58.678Z,19.44
2018-04-22T11:54:58.593Z,19.44
2018-04-22T11:55:58.634Z,19.42
2018-04-22T11:56:58.551Z,19.43
2018-04-22T11:57:58.532Z,19.42
2018-04-22T11:58:58.529Z,19.42
2018-04-22T11:59:59.009Z,19.43
2018-04-22T12:00:58.436Z,19.43
2018-04-22T12:01:58.457Z,19.42
2018-04-22T12:02:58.432Z,19.43
2018-04-22T12:03:58.536Z,19.42
2018-04-22T12:04:58.538Z,19.41
2018-04-22T12:05:58.531Z,19.42
2018-04-22T12:06:58.495Z,19.4
2018-04-22T12:07:58.545Z,19.4
2018-04-22T12:08:58.643Z,19.41
2018-04-22T12:09:58.619Z,19.4
2018-04-22T12:10:58.609Z,19.39
2018-04-22T12:11:58.557Z,19.4
2018-04-22T12:12:58.606Z,19.38
2018-04-22T12:13:58.477Z,19.4
2018-04-22T12:14:58.555Z,19.39
2018-04-22T12:15:58.393Z,19.37
2018-04-22T12:16:58.491Z,19.36
2018-04-22T12:17:58.556Z,19.37
2018-04-22T12:18:58.452Z,19.33
2018-04-22T12:19:58.459Z,19.37
2018-04-22T12:20:58.669Z,19.36
2018-04-22T12:21:58.743Z,19.33
2018-04-22T12:22:58.413Z,19.33
2018-04-22T12:23:58.469Z,19.36
2018-04-22T12:24:58.388Z,19.36
2018-04-22T12:25:58.629Z,19.38
2018-04-22T12:26:58.518Z,19.38
2018-04-22T12:27:58.567Z,19.4
2018-04-22T12:28:58.583Z,19.39
2018-04-22T12:29:58.594Z,19.39
2018-04-22T12:30:58.788Z,19.41
2018-04-22T12:31:58.549Z,19.44
2018-04-22T12:32:58.552Z,19.42
2018-04-22T12:33:58.446Z,19.44
2018-04-22T12:34:58.559Z,19.45
2018-04-22T12:35:58.687Z,19.45
2018-04-22T12:36:58.628Z,19.44
2018-04-22T12:37:58.499Z,19.44
2018-04-22T12:38:58.456Z,19.44
2018-04-22T12:39:58.650Z,19.44
2018-04-22T12:40:58.434Z,19.45
2018-04-22T12:41:58.503Z,19.5
2018-04-22T12:42:58.749Z,19.47
2018-04-22T12:43:58.772Z,19.5
2018-04-22T12:44:58.594Z,19.48
2018-04-22T12:45:58.497Z,19.48
2018-04-22T12:46:58.628Z,19.51
2018-04-22T12:47:58.715Z,19.5
2018-04-22T12:48:58.635Z,19.55
2018-04-22T12:49:58.575Z,19.55
2018-04-22T12:50:58.409Z,19.56
2018-04-22T12:51:58.546Z,19.55
2018-04-22T12:52:58.441Z,19.56
2018-04-22T12:53:58.610Z,19.58
2018-04-22T12:54:58.476Z,19.55